Capitol Logistics 563


EBLG
Liège Airport
Liege, BE
RKSI
Incheon International Airport
Seoul, KR

Route Details

Aircraft Information
Primary: Boeing 747-400BCF
Backup: Boeing 777-200LRF
Route Data
Distance: 5391nm
Sched. Duration: 11h 15m
Avg. Duration: 12h 01m (+86m)
Times Flown: 5
Recm'd Route: LNO5E LNO BEDSI Z671 TOBAK N858 MOSEX GOVEN L979 GRD T509 BUGOR G724 TE R364 IWV R364 US G901 BW A943 ARISA G3 AKB A113 TOMGO A355 MNS L147 KAMUD W186 SADAN W187 TUSLI W112 BILDA W619 CHW V67 YBL W199 YHD B215 VYK A326 DONVO G597 GONAV GONAV2M
Planned Altitude: 31,000ft
Origin Wx: EBLG 271820Z 19019KT 9999 SCT022 BKN042 11/06 Q1003 NOSIG
Dest. Wx: RKSI 271830Z 32007KT 4000 BR FEW007 SCT030 BKN200 14/13 Q1022 NOSIG
Notes:

Financial History
Total Freight: 615,851lbs
Average Load: 123,170lbs/flt
Fuel Used: 861,505lbs
Avg. Fuel Used: 172,301lbs/flt
Fuel Expense: $956,271
Avg. Fuel Expense: $191,254
Avg. Fuel Cost: $1.11/lbs
Total Gross Income: $2,537,556
Pilot Pay: $1,135
Total Expenses: $274,316
Total Revenue: $1,291,058
Average Revenue: $507,511.22